sensor_id;sensor_type;location;lat;lon;timestamp;P1;durP1;ratioP1;P2;durP2;ratioP2
24147;SDS011;12309;51.450;-2.624;2022-07-21T00:00:26;3.60;;;0.98;;
24147;SDS011;12309;51.450;-2.624;2022-07-21T00:02:53;5.90;;;1.00;;
24147;SDS011;12309;51.450;-2.624;2022-07-21T00:05:22;3.88;;;1.02;;
24147;SDS011;12309;51.450;-2.624;2022-07-21T00:07:49;3.95;;;1.05;;
24147;SDS011;12309;51.450;-2.624;2022-07-21T00:10:17;2.60;;;1.25;;
24147;SDS011;12309;51.450;-2.624;2022-07-21T00:12:43;6.03;;;1.33;;
24147;SDS011;12309;51.450;-2.624;2022-07-21T00:15:09;6.88;;;1.00;;
24147;SDS011;12309;51.450;-2.624;2022-07-21T00:17:36;1.42;;;0.80;;
24147;SDS011;12309;51.450;-2.624;2022-07-21T00:20:03;4.43;;;1.10;;
24147;SDS011;12309;51.450;-2.624;2022-07-21T00:22:30;5.57;;;0.95;;
24147;SDS011;12309;51.450;-2.624;2022-07-21T00:24:56;3.30;;;1.23;;
24147;SDS011;12309;51.450;-2.624;2022-07-21T00:27:23;2.97;;;0.82;;
24147;SDS011;12309;51.450;-2.624;2022-07-21T00:29:49;1.58;;;0.90;;
24147;SDS011;12309;51.450;-2.624;2022-07-21T00:32:15;3.10;;;1.00;;
24147;SDS011;12309;51.450;-2.624;2022-07-21T00:34:41;4.55;;;1.08;;
24147;SDS011;12309;51.450;-2.624;2022-07-21T00:37:09;3.03;;;0.90;;
24147;SDS011;12309;51.450;-2.624;2022-07-21T00:39:36;5.57;;;1.20;;
24147;SDS011;12309;51.450;-2.624;2022-07-21T00:42:02;3.25;;;0.82;;
24147;SDS011;12309;51.450;-2.624;2022-07-21T00:44:29;5.70;;;1.00;;
24147;SDS011;12309;51.450;-2.624;2022-07-21T00:46:55;3.45;;;0.90;;
24147;SDS011;12309;51.450;-2.624;2022-07-21T00:49:21;2.38;;;0.85;;
24147;SDS011;12309;51.450;-2.624;2022-07-21T00:51:48;4.18;;;1.35;;
24147;SDS011;12309;51.450;-2.624;2022-07-21T00:54:15;6.40;;;1.10;;
24147;SDS011;12309;51.450;-2.624;2022-07-21T00:56:41;2.65;;;1.10;;
24147;SDS011;12309;51.450;-2.624;2022-07-21T00:59:07;6.35;;;1.20;;
24147;SDS011;12309;51.450;-2.624;2022-07-21T01:01:33;4.70;;;1.27;;
24147;SDS011;12309;51.450;-2.624;2022-07-21T01:03:59;2.50;;;1.00;;
24147;SDS011;12309;51.450;-2.624;2022-07-21T01:06:25;5.40;;;1.20;;
24147;SDS011;12309;51.450;-2.624;2022-07-21T01:08:51;2.40;;;0.93;;
24147;SDS011;12309;51.450;-2.624;2022-07-21T01:11:18;2.45;;;1.02;;
24147;SDS011;12309;51.450;-2.624;2022-07-21T01:13:45;5.25;;;1.27;;
24147;SDS011;12309;51.450;-2.624;2022-07-21T01:16:12;5.40;;;0.90;;
24147;SDS011;12309;51.450;-2.624;2022-07-21T01:18:39;3.15;;;1.08;;
24147;SDS011;12309;51.450;-2.624;2022-07-21T01:23:52;4.68;;;0.93;;
24147;SDS011;12309;51.450;-2.624;2022-07-21T01:26:18;5.35;;;0.80;;
24147;SDS011;12309;51.450;-2.624;2022-07-21T01:28:44;2.63;;;0.70;;
24147;SDS011;12309;51.450;-2.624;2022-07-21T01:31:10;1.80;;;1.02;;
24147;SDS011;12309;51.450;-2.624;2022-07-21T01:33:36;1.25;;;0.80;;
24147;SDS011;12309;51.450;-2.624;2022-07-21T01:36:02;4.95;;;0.88;;
24147;SDS011;12309;51.450;-2.624;2022-07-21T01:38:28;1.90;;;0.70;;
24147;SDS011;12309;51.450;-2.624;2022-07-21T01:41:12;4.43;;;0.80;;
24147;SDS011;12309;51.450;-2.624;2022-07-21T01:43:57;4.15;;;0.70;;
24147;SDS011;12309;51.450;-2.624;2022-07-21T01:46:32;5.68;;;0.80;;
24147;SDS011;12309;51.450;-2.624;2022-07-21T01:48:59;3.53;;;0.85;;
24147;SDS011;12309;51.450;-2.624;2022-07-21T01:51:25;5.05;;;0.80;;
24147;SDS011;12309;51.450;-2.624;2022-07-21T01:53:52;2.15;;;0.70;;
24147;SDS011;12309;51.450;-2.624;2022-07-21T01:56:21;6.38;;;0.70;;
24147;SDS011;12309;51.450;-2.624;2022-07-21T01:58:49;1.73;;;0.93;;
24147;SDS011;12309;51.450;-2.624;2022-07-21T02:01:16;3.05;;;0.73;;
24147;SDS011;12309;51.450;-2.624;2022-07-21T02:03:43;2.13;;;0.80;;
24147;SDS011;12309;51.450;-2.624;2022-07-21T02:06:10;2.97;;;0.65;;
24147;SDS011;12309;51.450;-2.624;2022-07-21T02:08:36;3.70;;;0.70;;
24147;SDS011;12309;51.450;-2.624;2022-07-21T02:11:02;5.15;;;1.25;;
24147;SDS011;12309;51.450;-2.624;2022-07-21T02:13:29;2.45;;;1.10;;
24147;SDS011;12309;51.450;-2.624;2022-07-21T02:15:55;3.88;;;0.90;;
24147;SDS011;12309;51.450;-2.624;2022-07-21T02:18:21;1.35;;;0.70;;
24147;SDS011;12309;51.450;-2.624;2022-07-21T02:20:46;3.38;;;0.75;;
24147;SDS011;12309;51.450;-2.624;2022-07-21T02:23:13;1.75;;;0.60;;
24147;SDS011;12309;51.450;-2.624;2022-07-21T02:25:40;1.17;;;0.60;;
24147;SDS011;12309;51.450;-2.624;2022-07-21T02:28:06;1.80;;;0.77;;
24147;SDS011;12309;51.450;-2.624;2022-07-21T02:30:32;2.72;;;0.60;;
24147;SDS011;12309;51.450;-2.624;2022-07-21T02:32:57;3.15;;;0.70;;
24147;SDS011;12309;51.450;-2.624;2022-07-21T02:35:23;3.65;;;0.90;;
24147;SDS011;12309;51.450;-2.624;2022-07-21T02:37:49;3.85;;;0.70;;
24147;SDS011;12309;51.450;-2.624;2022-07-21T02:40:15;2.95;;;0.57;;
24147;SDS011;12309;51.450;-2.624;2022-07-21T02:42:41;2.28;;;0.90;;
24147;SDS011;12309;51.450;-2.624;2022-07-21T02:45:07;3.00;;;0.57;;
24147;SDS011;12309;51.450;-2.624;2022-07-21T02:47:54;3.38;;;0.80;;
24147;SDS011;12309;51.450;-2.624;2022-07-21T02:50:35;2.10;;;0.75;;
24147;SDS011;12309;51.450;-2.624;2022-07-21T02:53:06;2.92;;;0.80;;
24147;SDS011;12309;51.450;-2.624;2022-07-21T02:55:37;2.40;;;0.75;;
24147;SDS011;12309;51.450;-2.624;2022-07-21T02:58:07;5.78;;;0.90;;
24147;SDS011;12309;51.450;-2.624;2022-07-21T03:00:47;2.05;;;0.70;;
24147;SDS011;12309;51.450;-2.624;2022-07-21T03:03:24;2.28;;;0.90;;
24147;SDS011;12309;51.450;-2.624;2022-07-21T03:05:51;2.75;;;0.70;;
24147;SDS011;12309;51.450;-2.624;2022-07-21T03:08:18;4.75;;;0.60;;
24147;SDS011;12309;51.450;-2.624;2022-07-21T03:10:45;2.30;;;0.77;;
24147;SDS011;12309;51.450;-2.624;2022-07-21T03:13:11;1.20;;;0.73;;
24147;SDS011;12309;51.450;-2.624;2022-07-21T03:15:37;3.38;;;0.80;;
24147;SDS011;12309;51.450;-2.624;2022-07-21T03:18:04;6.28;;;0.90;;
24147;SDS011;12309;51.450;-2.624;2022-07-21T03:20:31;4.93;;;0.70;;
24147;SDS011;12309;51.450;-2.624;2022-07-21T03:22:59;2.70;;;0.82;;
24147;SDS011;12309;51.450;-2.624;2022-07-21T03:25:25;2.53;;;0.70;;
24147;SDS011;12309;51.450;-2.624;2022-07-21T03:27:52;2.90;;;0.80;;
24147;SDS011;12309;51.450;-2.624;2022-07-21T03:30:18;4.10;;;0.65;;
24147;SDS011;12309;51.450;-2.624;2022-07-21T03:32:44;2.80;;;0.90;;
24147;SDS011;12309;51.450;-2.624;2022-07-21T03:35:11;2.20;;;0.82;;
24147;SDS011;12309;51.450;-2.624;2022-07-21T03:37:44;1.55;;;0.60;;
24147;SDS011;12309;51.450;-2.624;2022-07-21T03:40:14;1.73;;;0.65;;
24147;SDS011;12309;51.450;-2.624;2022-07-21T03:42:41;1.88;;;0.68;;
24147;SDS011;12309;51.450;-2.624;2022-07-21T03:45:08;2.92;;;1.00;;
24147;SDS011;12309;51.450;-2.624;2022-07-21T03:47:34;7.65;;;1.10;;
24147;SDS011;12309;51.450;-2.624;2022-07-21T03:50:00;4.28;;;0.82;;
24147;SDS011;12309;51.450;-2.624;2022-07-21T03:52:27;2.97;;;1.00;;
24147;SDS011;12309;51.450;-2.624;2022-07-21T03:54:53;2.45;;;0.90;;
24147;SDS011;12309;51.450;-2.624;2022-07-21T03:57:43;2.47;;;0.80;;
24147;SDS011;12309;51.450;-2.624;2022-07-21T04:00:13;3.78;;;1.08;;
24147;SDS011;12309;51.450;-2.624;2022-07-21T04:02:43;2.05;;;0.60;;
24147;SDS011;12309;51.450;-2.624;2022-07-21T04:05:10;4.20;;;1.13;;
24147;SDS011;12309;51.450;-2.624;2022-07-21T04:07:40;4.78;;;0.77;;
24147;SDS011;12309;51.450;-2.624;2022-07-21T04:10:09;3.45;;;0.70;;
24147;SDS011;12309;51.450;-2.624;2022-07-21T04:12:38;3.08;;;1.00;;
24147;SDS011;12309;51.450;-2.624;2022-07-21T04:15:04;2.20;;;0.88;;
24147;SDS011;12309;51.450;-2.624;2022-07-21T04:17:31;5.25;;;0.77;;
24147;SDS011;12309;51.450;-2.624;2022-07-21T04:19:57;4.15;;;0.90;;
24147;SDS011;12309;51.450;-2.624;2022-07-21T04:22:23;3.22;;;0.80;;
24147;SDS011;12309;51.450;-2.624;2022-07-21T04:24:49;5.35;;;1.00;;
24147;SDS011;12309;51.450;-2.624;2022-07-21T04:27:15;5.53;;;0.90;;
24147;SDS011;12309;51.450;-2.624;2022-07-21T04:29:41;5.00;;;0.80;;
24147;SDS011;12309;51.450;-2.624;2022-07-21T04:32:07;4.65;;;0.90;;
24147;SDS011;12309;51.450;-2.624;2022-07-21T04:34:32;2.47;;;1.10;;
24147;SDS011;12309;51.450;-2.624;2022-07-21T04:36:58;4.75;;;1.00;;
24147;SDS011;12309;51.450;-2.624;2022-07-21T04:39:24;2.75;;;0.90;;
24147;SDS011;12309;51.450;-2.624;2022-07-21T04:41:50;4.47;;;0.90;;
24147;SDS011;12309;51.450;-2.624;2022-07-21T04:44:16;3.40;;;0.98;;
24147;SDS011;12309;51.450;-2.624;2022-07-21T04:46:41;2.10;;;0.75;;
24147;SDS011;12309;51.450;-2.624;2022-07-21T04:49:07;5.97;;;1.38;;
24147;SDS011;12309;51.450;-2.624;2022-07-21T04:51:33;2.47;;;1.05;;
24147;SDS011;12309;51.450;-2.624;2022-07-21T04:53:59;2.28;;;0.90;;
24147;SDS011;12309;51.450;-2.624;2022-07-21T04:56:25;2.50;;;0.80;;
24147;SDS011;12309;51.450;-2.624;2022-07-21T04:58:50;5.18;;;1.05;;
24147;SDS011;12309;51.450;-2.624;2022-07-21T05:01:16;3.10;;;1.02;;
24147;SDS011;12309;51.450;-2.624;2022-07-21T05:03:45;1.92;;;0.95;;
24147;SDS011;12309;51.450;-2.624;2022-07-21T05:06:11;5.57;;;1.00;;
24147;SDS011;12309;51.450;-2.624;2022-07-21T05:08:37;3.08;;;0.82;;
24147;SDS011;12309;51.450;-2.624;2022-07-21T05:11:03;3.17;;;0.90;;
24147;SDS011;12309;51.450;-2.624;2022-07-21T05:13:29;4.13;;;0.93;;
24147;SDS011;12309;51.450;-2.624;2022-07-21T05:15:55;1.73;;;0.98;;
24147;SDS011;12309;51.450;-2.624;2022-07-21T05:18:21;2.00;;;0.80;;
24147;SDS011;12309;51.450;-2.624;2022-07-21T05:20:46;2.97;;;1.20;;
24147;SDS011;12309;51.450;-2.624;2022-07-21T05:23:12;7.05;;;1.33;;
24147;SDS011;12309;51.450;-2.624;2022-07-21T05:25:38;4.00;;;0.93;;
24147;SDS011;12309;51.450;-2.624;2022-07-21T05:28:07;5.82;;;1.20;;
24147;SDS011;12309;51.450;-2.624;2022-07-21T05:30:33;4.35;;;1.13;;
24147;SDS011;12309;51.450;-2.624;2022-07-21T05:33:00;5.10;;;1.30;;
24147;SDS011;12309;51.450;-2.624;2022-07-21T05:35:26;4.15;;;1.30;;
24147;SDS011;12309;51.450;-2.624;2022-07-21T05:37:52;3.28;;;1.02;;
24147;SDS011;12309;51.450;-2.624;2022-07-21T05:40:18;3.58;;;0.90;;
24147;SDS011;12309;51.450;-2.624;2022-07-21T05:42:44;6.82;;;0.90;;
24147;SDS011;12309;51.450;-2.624;2022-07-21T05:45:10;3.38;;;0.98;;
24147;SDS011;12309;51.450;-2.624;2022-07-21T05:47:37;3.85;;;1.27;;
24147;SDS011;12309;51.450;-2.624;2022-07-21T05:50:03;4.00;;;1.10;;
24147;SDS011;12309;51.450;-2.624;2022-07-21T05:52:29;2.40;;;1.02;;
24147;SDS011;12309;51.450;-2.624;2022-07-21T05:54:55;5.13;;;1.30;;
24147;SDS011;12309;51.450;-2.624;2022-07-21T05:57:21;2.95;;;0.90;;
24147;SDS011;12309;51.450;-2.624;2022-07-21T05:59:47;4.38;;;0.98;;
24147;SDS011;12309;51.450;-2.624;2022-07-21T06:02:13;3.72;;;1.00;;
24147;SDS011;12309;51.450;-2.624;2022-07-21T06:04:39;6.25;;;1.02;;
24147;SDS011;12309;51.450;-2.624;2022-07-21T06:07:05;1.40;;;0.85;;
24147;SDS011;12309;51.450;-2.624;2022-07-21T06:09:31;6.47;;;0.95;;
24147;SDS011;12309;51.450;-2.624;2022-07-21T06:11:56;4.70;;;1.13;;
24147;SDS011;12309;51.450;-2.624;2022-07-21T06:14:22;2.58;;;1.10;;
24147;SDS011;12309;51.450;-2.624;2022-07-21T06:16:48;2.55;;;0.73;;
24147;SDS011;12309;51.450;-2.624;2022-07-21T06:19:15;5.88;;;1.13;;
24147;SDS011;12309;51.450;-2.624;2022-07-21T06:21:41;3.00;;;0.93;;
24147;SDS011;12309;51.450;-2.624;2022-07-21T06:24:07;3.00;;;1.10;;
24147;SDS011;12309;51.450;-2.624;2022-07-21T06:26:33;3.42;;;0.90;;
24147;SDS011;12309;51.450;-2.624;2022-07-21T06:28:59;6.53;;;1.23;;
24147;SDS011;12309;51.450;-2.624;2022-07-21T06:31:25;3.42;;;0.90;;
24147;SDS011;12309;51.450;-2.624;2022-07-21T06:33:51;4.63;;;1.05;;
24147;SDS011;12309;51.450;-2.624;2022-07-21T06:36:17;6.82;;;1.00;;
24147;SDS011;12309;51.450;-2.624;2022-07-21T06:38:43;2.05;;;0.80;;
24147;SDS011;12309;51.450;-2.624;2022-07-21T06:41:10;4.07;;;0.88;;
24147;SDS011;12309;51.450;-2.624;2022-07-21T06:43:36;2.10;;;0.75;;
24147;SDS011;12309;51.450;-2.624;2022-07-21T06:46:02;4.15;;;0.98;;
24147;SDS011;12309;51.450;-2.624;2022-07-21T06:48:28;1.45;;;0.70;;
24147;SDS011;12309;51.450;-2.624;2022-07-21T06:50:56;3.30;;;0.90;;
24147;SDS011;12309;51.450;-2.624;2022-07-21T06:53:22;2.92;;;0.80;;
24147;SDS011;12309;51.450;-2.624;2022-07-21T06:55:49;4.07;;;0.95;;
24147;SDS011;12309;51.450;-2.624;2022-07-21T06:58:19;5.47;;;1.23;;
24147;SDS011;12309;51.450;-2.624;2022-07-21T07:00:47;1.73;;;0.82;;
24147;SDS011;12309;51.450;-2.624;2022-07-21T07:03:15;7.07;;;1.20;;
24147;SDS011;12309;51.450;-2.624;2022-07-21T07:05:42;4.68;;;0.80;;
24147;SDS011;12309;51.450;-2.624;2022-07-21T07:08:09;2.28;;;0.80;;
24147;SDS011;12309;51.450;-2.624;2022-07-21T07:10:36;4.80;;;0.90;;
24147;SDS011;12309;51.450;-2.624;2022-07-21T07:13:02;5.13;;;0.90;;
24147;SDS011;12309;51.450;-2.624;2022-07-21T07:15:28;5.78;;;1.15;;
24147;SDS011;12309;51.450;-2.624;2022-07-21T07:17:55;4.10;;;0.82;;
24147;SDS011;12309;51.450;-2.624;2022-07-21T07:20:21;4.93;;;1.00;;
24147;SDS011;12309;51.450;-2.624;2022-07-21T07:22:47;4.28;;;1.05;;
24147;SDS011;12309;51.450;-2.624;2022-07-21T07:25:14;5.78;;;1.15;;
24147;SDS011;12309;51.450;-2.624;2022-07-21T07:27:43;4.95;;;1.05;;
24147;SDS011;12309;51.450;-2.624;2022-07-21T07:30:12;7.53;;;1.10;;
24147;SDS011;12309;51.450;-2.624;2022-07-21T07:32:39;11.98;;;1.63;;
24147;SDS011;12309;51.450;-2.624;2022-07-21T07:35:05;9.40;;;1.33;;
24147;SDS011;12309;51.450;-2.624;2022-07-21T07:37:36;3.90;;;1.20;;
24147;SDS011;12309;51.450;-2.624;2022-07-21T07:40:04;5.47;;;1.30;;
24147;SDS011;12309;51.450;-2.624;2022-07-21T07:42:32;6.90;;;1.52;;
24147;SDS011;12309;51.450;-2.624;2022-07-21T07:45:00;3.95;;;1.35;;
24147;SDS011;12309;51.450;-2.624;2022-07-21T07:47:27;6.10;;;1.38;;
24147;SDS011;12309;51.450;-2.624;2022-07-21T07:49:54;8.38;;;1.77;;
24147;SDS011;12309;51.450;-2.624;2022-07-21T07:52:20;2.83;;;1.30;;
24147;SDS011;12309;51.450;-2.624;2022-07-21T07:54:46;3.58;;;1.20;;
24147;SDS011;12309;51.450;-2.624;2022-07-21T07:57:12;6.95;;;1.52;;
24147;SDS011;12309;51.450;-2.624;2022-07-21T07:59:38;6.10;;;1.52;;
24147;SDS011;12309;51.450;-2.624;2022-07-21T08:02:04;4.80;;;1.42;;
24147;SDS011;12309;51.450;-2.624;2022-07-21T08:04:30;5.43;;;1.45;;
24147;SDS011;12309;51.450;-2.624;2022-07-21T08:06:56;6.97;;;1.70;;
24147;SDS011;12309;51.450;-2.624;2022-07-21T08:09:21;5.75;;;1.70;;
24147;SDS011;12309;51.450;-2.624;2022-07-21T08:11:48;7.22;;;1.58;;
24147;SDS011;12309;51.450;-2.624;2022-07-21T08:14:14;7.35;;;1.60;;
24147;SDS011;12309;51.450;-2.624;2022-07-21T08:16:40;11.07;;;2.00;;
24147;SDS011;12309;51.450;-2.624;2022-07-21T08:19:06;8.90;;;1.23;;
24147;SDS011;12309;51.450;-2.624;2022-07-21T08:21:32;4.20;;;1.25;;
24147;SDS011;12309;51.450;-2.624;2022-07-21T08:23:59;4.13;;;1.38;;
24147;SDS011;12309;51.450;-2.624;2022-07-21T08:26:25;6.93;;;1.40;;
24147;SDS011;12309;51.450;-2.624;2022-07-21T08:28:55;10.52;;;2.53;;
24147;SDS011;12309;51.450;-2.624;2022-07-21T08:31:22;6.68;;;1.42;;
24147;SDS011;12309;51.450;-2.624;2022-07-21T08:33:53;4.20;;;1.33;;
24147;SDS011;12309;51.450;-2.624;2022-07-21T08:36:19;10.10;;;1.67;;
24147;SDS011;12309;51.450;-2.624;2022-07-21T08:38:45;5.57;;;1.45;;
24147;SDS011;12309;51.450;-2.624;2022-07-21T08:41:11;4.97;;;1.30;;
24147;SDS011;12309;51.450;-2.624;2022-07-21T08:43:37;8.00;;;1.55;;
24147;SDS011;12309;51.450;-2.624;2022-07-21T08:46:04;7.65;;;1.17;;
24147;SDS011;12309;51.450;-2.624;2022-07-21T08:48:30;9.60;;;1.27;;
24147;SDS011;12309;51.450;-2.624;2022-07-21T08:50:56;5.72;;;1.30;;
24147;SDS011;12309;51.450;-2.624;2022-07-21T08:53:23;9.75;;;1.85;;
24147;SDS011;12309;51.450;-2.624;2022-07-21T08:55:49;6.85;;;1.10;;
24147;SDS011;12309;51.450;-2.624;2022-07-21T08:58:15;3.63;;;1.40;;
24147;SDS011;12309;51.450;-2.624;2022-07-21T09:00:42;4.07;;;1.15;;
24147;SDS011;12309;51.450;-2.624;2022-07-21T09:03:28;7.47;;;1.40;;
24147;SDS011;12309;51.450;-2.624;2022-07-21T09:05:59;5.82;;;1.60;;
24147;SDS011;12309;51.450;-2.624;2022-07-21T09:08:42;6.00;;;1.40;;
24147;SDS011;12309;51.450;-2.624;2022-07-21T09:11:27;5.65;;;1.50;;
24147;SDS011;12309;51.450;-2.624;2022-07-21T09:19:05;4.05;;;1.30;;
24147;SDS011;12309;51.450;-2.624;2022-07-21T09:21:32;4.50;;;1.00;;
24147;SDS011;12309;51.450;-2.624;2022-07-21T09:24:15;6.32;;;1.40;;
24147;SDS011;12309;51.450;-2.624;2022-07-21T09:26:56;6.35;;;1.20;;
24147;SDS011;12309;51.450;-2.624;2022-07-21T09:29:25;7.05;;;1.60;;
24147;SDS011;12309;51.450;-2.624;2022-07-21T09:31:57;8.70;;;1.60;;
24147;SDS011;12309;51.450;-2.624;2022-07-21T09:34:36;3.90;;;1.30;;
24147;SDS011;12309;51.450;-2.624;2022-07-21T09:37:04;4.28;;;1.52;;
24147;SDS011;12309;51.450;-2.624;2022-07-21T09:39:41;5.93;;;1.90;;
24147;SDS011;12309;51.450;-2.624;2022-07-21T09:42:15;8.52;;;2.10;;
24147;SDS011;12309;51.450;-2.624;2022-07-21T09:44:54;9.68;;;2.33;;
24147;SDS011;12309;51.450;-2.624;2022-07-21T09:47:26;8.07;;;2.38;;
24147;SDS011;12309;51.450;-2.624;2022-07-21T09:49:54;6.72;;;2.00;;
24147;SDS011;12309;51.450;-2.624;2022-07-21T09:52:23;6.25;;;2.08;;
24147;SDS011;12309;51.450;-2.624;2022-07-21T09:54:54;7.07;;;1.92;;
24147;SDS011;12309;51.450;-2.624;2022-07-21T09:57:22;8.30;;;2.15;;
24147;SDS011;12309;51.450;-2.624;2022-07-21T09:59:48;10.15;;;2.45;;
24147;SDS011;12309;51.450;-2.624;2022-07-21T10:07:32;4.95;;;1.95;;
24147;SDS011;12309;51.450;-2.624;2022-07-21T10:10:00;8.43;;;2.33;;
24147;SDS011;12309;51.450;-2.624;2022-07-21T10:12:26;8.23;;;2.40;;
24147;SDS011;12309;51.450;-2.624;2022-07-21T10:14:53;11.40;;;3.05;;
24147;SDS011;12309;51.450;-2.624;2022-07-21T10:17:19;5.63;;;2.10;;
24147;SDS011;12309;51.450;-2.624;2022-07-21T10:19:57;7.15;;;2.47;;
24147;SDS011;12309;51.450;-2.624;2022-07-21T10:25:26;7.22;;;2.40;;
24147;SDS011;12309;51.450;-2.624;2022-07-21T10:30:55;8.52;;;2.10;;
24147;SDS011;12309;51.450;-2.624;2022-07-21T10:34:07;5.45;;;2.00;;
24147;SDS011;12309;51.450;-2.624;2022-07-21T10:36:56;8.98;;;2.47;;
24147;SDS011;12309;51.450;-2.624;2022-07-21T10:41:42;6.15;;;2.60;;
24147;SDS011;12309;51.450;-2.624;2022-07-21T10:49:55;8.68;;;2.25;;
24147;SDS011;12309;51.450;-2.624;2022-07-21T10:55:21;8.23;;;2.72;;
24147;SDS011;12309;51.450;-2.624;2022-07-21T11:00:51;8.10;;;2.67;;
24147;SDS011;12309;51.450;-2.624;2022-07-21T11:03:30;7.57;;;2.50;;
24147;SDS011;12309;51.450;-2.624;2022-07-21T11:08:48;11.93;;;3.28;;
24147;SDS011;12309;51.450;-2.624;2022-07-21T11:22:11;8.80;;;2.95;;
24147;SDS011;12309;51.450;-2.624;2022-07-21T11:24:41;8.43;;;3.33;;
24147;SDS011;12309;51.450;-2.624;2022-07-21T11:27:12;6.90;;;2.83;;
24147;SDS011;12309;51.450;-2.624;2022-07-21T11:29:40;8.43;;;2.60;;
24147;SDS011;12309;51.450;-2.624;2022-07-21T11:32:08;6.15;;;2.50;;
24147;SDS011;12309;51.450;-2.624;2022-07-21T11:34:47;9.02;;;2.50;;
24147;SDS011;12309;51.450;-2.624;2022-07-21T11:37:28;5.43;;;2.50;;
24147;SDS011;12309;51.450;-2.624;2022-07-21T11:40:00;5.35;;;2.47;;
24147;SDS011;12309;51.450;-2.624;2022-07-21T11:42:27;13.10;;;2.70;;
24147;SDS011;12309;51.450;-2.624;2022-07-21T11:44:55;10.60;;;2.55;;
24147;SDS011;12309;51.450;-2.624;2022-07-21T11:47:22;9.50;;;2.60;;
24147;SDS011;12309;51.450;-2.624;2022-07-21T11:49:52;4.95;;;2.30;;
24147;SDS011;12309;51.450;-2.624;2022-07-21T11:52:31;8.10;;;2.47;;
24147;SDS011;12309;51.450;-2.624;2022-07-21T11:54:59;7.25;;;2.83;;
24147;SDS011;12309;51.450;-2.624;2022-07-21T11:57:27;8.38;;;3.10;;
24147;SDS011;12309;51.450;-2.624;2022-07-21T11:59:54;5.22;;;2.30;;
24147;SDS011;12309;51.450;-2.624;2022-07-21T12:02:25;11.55;;;3.03;;
24147;SDS011;12309;51.450;-2.624;2022-07-21T12:04:56;7.82;;;3.08;;
24147;SDS011;12309;51.450;-2.624;2022-07-21T12:09:57;8.57;;;2.60;;
24147;SDS011;12309;51.450;-2.624;2022-07-21T12:12:33;6.90;;;2.50;;
24147;SDS011;12309;51.450;-2.624;2022-07-21T12:15:23;7.50;;;2.70;;
24147;SDS011;12309;51.450;-2.624;2022-07-21T12:17:55;10.88;;;2.97;;
24147;SDS011;12309;51.450;-2.624;2022-07-21T12:20:30;9.10;;;3.03;;
24147;SDS011;12309;51.450;-2.624;2022-07-21T12:23:02;5.35;;;2.47;;
24147;SDS011;12309;51.450;-2.624;2022-07-21T12:25:42;12.45;;;2.85;;
24147;SDS011;12309;51.450;-2.624;2022-07-21T12:28:08;7.15;;;2.90;;
24147;SDS011;12309;51.450;-2.624;2022-07-21T12:30:40;5.70;;;2.55;;
24147;SDS011;12309;51.450;-2.624;2022-07-21T12:33:13;10.13;;;2.75;;
24147;SDS011;12309;51.450;-2.624;2022-07-21T12:35:41;10.18;;;3.40;;
24147;SDS011;12309;51.450;-2.624;2022-07-21T12:40:37;3.58;;;2.30;;
24147;SDS011;12309;51.450;-2.624;2022-07-21T12:43:12;8.38;;;3.00;;
24147;SDS011;12309;51.450;-2.624;2022-07-21T12:45:52;5.72;;;2.90;;
24147;SDS011;12309;51.450;-2.624;2022-07-21T12:48:26;9.50;;;2.53;;
24147;SDS011;12309;51.450;-2.624;2022-07-21T12:50:57;8.13;;;3.10;;
24147;SDS011;12309;51.450;-2.624;2022-07-21T12:53:31;6.68;;;3.10;;
24147;SDS011;12309;51.450;-2.624;2022-07-21T12:55:59;5.93;;;2.65;;
24147;SDS011;12309;51.450;-2.624;2022-07-21T12:58:25;16.13;;;3.00;;
24147;SDS011;12309;51.450;-2.624;2022-07-21T13:00:51;8.32;;;2.90;;
24147;SDS011;12309;51.450;-2.624;2022-07-21T13:03:17;8.00;;;2.58;;
24147;SDS011;12309;51.450;-2.624;2022-07-21T13:05:43;8.15;;;3.00;;
24147;SDS011;12309;51.450;-2.624;2022-07-21T13:08:08;6.85;;;3.25;;
24147;SDS011;12309;51.450;-2.624;2022-07-21T13:10:34;8.07;;;2.85;;
24147;SDS011;12309;51.450;-2.624;2022-07-21T13:13:00;6.85;;;2.90;;
24147;SDS011;12309;51.450;-2.624;2022-07-21T13:15:26;9.55;;;3.25;;
24147;SDS011;12309;51.450;-2.624;2022-07-21T13:17:52;8.00;;;2.67;;
24147;SDS011;12309;51.450;-2.624;2022-07-21T13:20:18;8.02;;;2.85;;
24147;SDS011;12309;51.450;-2.624;2022-07-21T13:22:44;6.82;;;3.00;;
24147;SDS011;12309;51.450;-2.624;2022-07-21T13:25:10;5.20;;;2.75;;
24147;SDS011;12309;51.450;-2.624;2022-07-21T13:27:37;9.95;;;2.92;;
24147;SDS011;12309;51.450;-2.624;2022-07-21T13:30:04;7.15;;;3.25;;
24147;SDS011;12309;51.450;-2.624;2022-07-21T13:32:35;6.90;;;2.97;;
24147;SDS011;12309;51.450;-2.624;2022-07-21T13:35:02;9.10;;;3.20;;
24147;SDS011;12309;51.450;-2.624;2022-07-21T13:37:29;10.10;;;3.15;;
24147;SDS011;12309;51.450;-2.624;2022-07-21T13:39:54;9.10;;;3.60;;
24147;SDS011;12309;51.450;-2.624;2022-07-21T13:42:20;10.55;;;3.28;;
24147;SDS011;12309;51.450;-2.624;2022-07-21T13:44:46;8.00;;;3.22;;
24147;SDS011;12309;51.450;-2.624;2022-07-21T13:47:12;5.95;;;3.40;;
24147;SDS011;12309;51.450;-2.624;2022-07-21T13:49:38;9.30;;;3.08;;
24147;SDS011;12309;51.450;-2.624;2022-07-21T13:52:04;7.50;;;3.47;;
24147;SDS011;12309;51.450;-2.624;2022-07-21T13:54:30;5.75;;;2.95;;
24147;SDS011;12309;51.450;-2.624;2022-07-21T13:56:55;8.88;;;3.42;;
24147;SDS011;12309;51.450;-2.624;2022-07-21T13:59:22;8.20;;;3.33;;
24147;SDS011;12309;51.450;-2.624;2022-07-21T14:01:48;15.10;;;3.85;;
24147;SDS011;12309;51.450;-2.624;2022-07-21T14:04:14;8.30;;;3.88;;
24147;SDS011;12309;51.450;-2.624;2022-07-21T14:06:40;9.20;;;3.47;;
24147;SDS011;12309;51.450;-2.624;2022-07-21T14:09:06;12.98;;;3.80;;
24147;SDS011;12309;51.450;-2.624;2022-07-21T14:11:32;8.73;;;3.22;;
24147;SDS011;12309;51.450;-2.624;2022-07-21T14:13:57;9.57;;;3.47;;
24147;SDS011;12309;51.450;-2.624;2022-07-21T14:16:24;10.93;;;3.78;;
24147;SDS011;12309;51.450;-2.624;2022-07-21T14:18:49;10.45;;;3.33;;
24147;SDS011;12309;51.450;-2.624;2022-07-21T14:21:15;7.97;;;3.35;;
24147;SDS011;12309;51.450;-2.624;2022-07-21T14:23:41;6.95;;;3.13;;
24147;SDS011;12309;51.450;-2.624;2022-07-21T14:26:07;9.80;;;3.13;;
24147;SDS011;12309;51.450;-2.624;2022-07-21T14:28:33;17.13;;;3.50;;
24147;SDS011;12309;51.450;-2.624;2022-07-21T14:30:58;7.60;;;2.80;;
24147;SDS011;12309;51.450;-2.624;2022-07-21T14:33:25;9.25;;;3.67;;
24147;SDS011;12309;51.450;-2.624;2022-07-21T14:35:51;10.40;;;2.92;;
24147;SDS011;12309;51.450;-2.624;2022-07-21T14:38:16;9.52;;;3.28;;
24147;SDS011;12309;51.450;-2.624;2022-07-21T14:40:45;6.65;;;2.95;;
24147;SDS011;12309;51.450;-2.624;2022-07-21T14:43:11;12.50;;;3.35;;
24147;SDS011;12309;51.450;-2.624;2022-07-21T14:45:37;12.45;;;3.50;;
24147;SDS011;12309;51.450;-2.624;2022-07-21T14:48:03;7.00;;;3.00;;
24147;SDS011;12309;51.450;-2.624;2022-07-21T14:50:29;9.23;;;3.55;;
24147;SDS011;12309;51.450;-2.624;2022-07-21T14:52:55;9.20;;;3.33;;
24147;SDS011;12309;51.450;-2.624;2022-07-21T14:55:23;9.30;;;3.17;;
24147;SDS011;12309;51.450;-2.624;2022-07-21T14:57:50;7.45;;;3.20;;
24147;SDS011;12309;51.450;-2.624;2022-07-21T15:00:17;11.52;;;3.22;;
24147;SDS011;12309;51.450;-2.624;2022-07-21T15:02:43;8.27;;;4.00;;
24147;SDS011;12309;51.450;-2.624;2022-07-21T15:05:10;8.85;;;3.38;;
24147;SDS011;12309;51.450;-2.624;2022-07-21T15:07:35;9.95;;;3.08;;
24147;SDS011;12309;51.450;-2.624;2022-07-21T15:10:02;10.13;;;3.50;;
24147;SDS011;12309;51.450;-2.624;2022-07-21T15:12:28;11.70;;;4.18;;
24147;SDS011;12309;51.450;-2.624;2022-07-21T15:14:54;12.95;;;4.28;;
24147;SDS011;12309;51.450;-2.624;2022-07-21T15:17:20;8.68;;;3.58;;
24147;SDS011;12309;51.450;-2.624;2022-07-21T15:19:46;10.55;;;3.28;;
24147;SDS011;12309;51.450;-2.624;2022-07-21T15:22:12;7.43;;;3.00;;
24147;SDS011;12309;51.450;-2.624;2022-07-21T15:24:37;7.30;;;3.33;;
24147;SDS011;12309;51.450;-2.624;2022-07-21T15:27:03;9.32;;;3.30;;
24147;SDS011;12309;51.450;-2.624;2022-07-21T15:29:29;8.85;;;2.97;;